createdAt,value
2018-09-04T00:00:56.729Z,24.70
2018-09-04T00:03:30.572Z,24.70
2018-09-04T00:06:06.196Z,24.80
2018-09-04T00:08:40.829Z,24.70
2018-09-04T00:11:14.799Z,24.50
2018-09-04T00:13:49.136Z,24.60
2018-09-04T00:16:24.342Z,24.70
2018-09-04T00:18:58.842Z,24.80
2018-09-04T00:21:32.823Z,24.70
2018-09-04T00:24:06.788Z,24.60
2018-09-04T00:26:42.411Z,24.10
2018-09-04T00:29:16.096Z,23.80
2018-09-04T00:31:50.673Z,23.90
2018-09-04T00:34:26.498Z,23.90
2018-09-04T00:37:00.909Z,24.40
2018-09-04T00:39:35.540Z,24.50
2018-09-04T00:42:09.658Z,24.20
2018-09-04T00:44:45.644Z,24.30
2018-09-04T00:47:21.488Z,24.70
2018-09-04T00:49:56.262Z,24.90
2018-09-04T00:52:31.126Z,25.00
2018-09-04T00:55:06.060Z,25.00
2018-09-04T00:57:42.047Z,24.90
2018-09-04T01:00:17.716Z,24.60
2018-09-04T01:02:52.873Z,24.40
2018-09-04T01:05:28.660Z,24.40
2018-09-04T01:08:02.897Z,24.40
2018-09-04T01:10:36.445Z,24.40
2018-09-04T01:13:11.577Z,24.40
2018-09-04T01:15:47.669Z,24.50
2018-09-04T01:18:22.405Z,24.40
2018-09-04T01:20:57.895Z,24.30
2018-09-04T01:23:32.104Z,24.60
2018-09-04T01:26:08.471Z,24.90
2018-09-04T01:28:45.062Z,24.90
2018-09-04T01:31:21.559Z,24.80
2018-09-04T01:33:55.802Z,24.20
2018-09-04T01:36:30.691Z,23.70
2018-09-04T01:39:05.127Z,23.20
2018-09-04T01:41:39.113Z,22.60
2018-09-04T01:44:13.757Z,22.40
2018-09-04T01:46:47.516Z,22.20
2018-09-04T01:49:23.124Z,21.90
2018-09-04T01:51:58.094Z,21.80
2018-09-04T01:54:33.114Z,21.70
2018-09-04T01:57:07.434Z,21.60
2018-09-04T01:59:43.003Z,21.50
2018-09-04T02:02:16.753Z,21.30
2018-09-04T02:07:39.520Z,21.00
2018-09-04T02:10:15.818Z,20.80
2018-09-04T02:12:50.830Z,20.70
2018-09-04T02:15:30.132Z,20.50
2018-09-04T02:18:05.807Z,20.40
2018-09-04T02:20:39.272Z,20.30
2018-09-04T02:23:14.161Z,20.20
2018-09-04T02:25:52.206Z,20.10
2018-09-04T02:28:27.793Z,20.00
2018-09-04T02:31:01.655Z,19.90
2018-09-04T02:33:36.661Z,19.80
2018-09-04T02:36:10.758Z,19.80
2018-09-04T02:38:46.082Z,19.70
2018-09-04T02:41:21.449Z,19.60
2018-09-04T02:43:54.917Z,19.40
2018-09-04T02:46:29.947Z,19.40
2018-09-04T02:49:04.857Z,19.30
2018-09-04T02:51:40.033Z,19.20
2018-09-04T02:56:58.010Z,19.00
2018-09-04T02:59:35.868Z,18.90
2018-09-04T03:02:10.741Z,18.80
2018-09-04T03:04:44.739Z,18.70
2018-09-04T03:07:20.879Z,18.70
2018-09-04T03:09:56.210Z,18.60
2018-09-04T03:12:30.878Z,18.60
2018-09-04T03:15:06.020Z,18.50
2018-09-04T03:17:41.419Z,18.30
2018-09-04T03:20:16.768Z,18.30
2018-09-04T03:22:50.794Z,18.20
2018-09-04T03:25:24.902Z,18.10
2018-09-04T03:28:06.391Z,18.10
2018-09-04T03:30:47.899Z,18.00
2018-09-04T03:33:22.503Z,17.90
2018-09-04T03:35:57.041Z,17.80
2018-09-04T03:38:35.102Z,17.80
2018-09-04T03:41:09.858Z,17.70
2018-09-04T03:43:43.599Z,17.70
2018-09-04T03:46:18.406Z,17.70
2018-09-04T03:48:52.796Z,17.60
2018-09-04T03:54:05.695Z,17.50
2018-09-04T03:56:41.697Z,17.50
2018-09-04T03:59:16.182Z,17.40
2018-09-04T04:01:50.332Z,17.30
2018-09-04T04:04:24.476Z,17.20
2018-09-04T04:07:00.718Z,17.20
2018-09-04T04:09:35.181Z,17.20
2018-09-04T04:12:10.009Z,17.10
2018-09-04T04:14:44.053Z,17.00
2018-09-04T04:17:18.354Z,17.00
2018-09-04T04:19:53.791Z,16.90
2018-09-04T04:22:28.145Z,16.90
2018-09-04T04:25:03.188Z,16.80
2018-09-04T04:27:39.026Z,16.70
2018-09-04T04:30:13.037Z,16.60
2018-09-04T04:32:47.689Z,16.60
2018-09-04T04:35:23.893Z,16.60
2018-09-04T04:37:58.021Z,16.50
2018-09-04T04:40:32.932Z,16.50
2018-09-04T04:43:07.242Z,16.40
2018-09-04T04:49:22.791Z,16.40
2018-09-04T04:51:57.642Z,16.30
2018-09-04T04:54:35.572Z,16.20
2018-09-04T04:57:09.298Z,16.20
2018-09-04T04:59:44.105Z,16.10
2018-09-04T05:02:18.804Z,16.00
2018-09-04T05:04:53.076Z,16.00
2018-09-04T05:07:29.288Z,15.90
2018-09-04T05:10:04.612Z,15.80
2018-09-04T05:12:39.262Z,15.80
2018-09-04T05:15:14.550Z,15.70
2018-09-04T05:17:49.037Z,15.60
2018-09-04T05:20:28.587Z,15.60
2018-09-04T05:23:02.544Z,15.50
2018-09-04T05:25:37.584Z,15.50
2018-09-04T05:28:13.115Z,15.40
2018-09-04T05:30:48.388Z,15.30
2018-09-04T05:33:39.683Z,15.30
2018-09-04T05:36:17.676Z,15.20
2018-09-04T05:38:53.388Z,15.10
2018-09-04T05:41:27.151Z,15.10
2018-09-04T05:44:03.471Z,15.10
2018-09-04T05:46:46.068Z,15.10
2018-09-04T05:49:24.700Z,15.10
2018-09-04T05:51:59.525Z,15.20
2018-09-04T05:54:35.070Z,15.10
2018-09-04T05:57:10.515Z,15.10
2018-09-04T05:59:46.787Z,15.10
2018-09-04T06:02:21.605Z,15.00
2018-09-04T06:04:58.486Z,14.90
2018-09-04T06:07:33.528Z,14.90
2018-09-04T06:10:08.232Z,14.90
2018-09-04T06:12:43.182Z,14.80
2018-09-04T06:15:20.677Z,14.70
2018-09-04T06:17:57.907Z,14.70
2018-09-04T06:20:32.503Z,14.60
2018-09-04T06:23:09.672Z,14.60
2018-09-04T06:25:43.405Z,14.50
2018-09-04T06:28:19.480Z,14.40
2018-09-04T06:30:56.123Z,14.40
2018-09-04T06:33:30.477Z,14.40
2018-09-04T06:36:08.524Z,14.30
2018-09-04T06:38:44.298Z,14.20
2018-09-04T06:41:20.557Z,14.20
2018-09-04T06:43:58.856Z,14.10
2018-09-04T06:46:34.239Z,14.10
2018-09-04T06:49:12.119Z,14.00
2018-09-04T06:51:45.879Z,13.90
2018-09-04T06:54:20.019Z,13.90
2018-09-04T06:56:55.121Z,13.80
2018-09-04T06:59:28.853Z,13.80
2018-09-04T07:02:07.182Z,13.80
2018-09-04T07:04:41.555Z,13.80
2018-09-04T07:07:16.424Z,13.70
2018-09-04T07:09:51.674Z,13.60
2018-09-04T07:12:28.738Z,13.60
2018-09-04T07:15:04.158Z,13.60
2018-09-04T07:17:40.692Z,13.50
2018-09-04T07:20:21.540Z,13.50
2018-09-04T07:22:56.134Z,13.50
2018-09-04T07:25:30.475Z,13.40
2018-09-04T07:28:05.041Z,13.40
2018-09-04T07:30:38.501Z,13.30
2018-09-04T07:33:14.537Z,13.30
2018-09-04T07:35:54.599Z,13.20
2018-09-04T07:38:33.116Z,13.20
2018-09-04T07:41:09.704Z,13.10
2018-09-04T07:43:45.282Z,13.10
2018-09-04T14:34:39.137Z,11.20
2018-09-04T14:37:15.006Z,11.20
2018-09-04T14:39:55.589Z,11.30
2018-09-04T14:42:25.179Z,11.30
2018-09-04T14:45:01.019Z,11.40
2018-09-04T14:47:34.807Z,11.40
2018-09-04T14:50:16.613Z,11.50
2018-09-04T14:52:51.034Z,11.60
2018-09-04T14:55:30.610Z,11.70
2018-09-04T14:58:09.061Z,11.70
2018-09-04T15:00:42.392Z,11.80
2018-09-04T15:03:15.859Z,11.90
2018-09-04T15:05:50.173Z,12.00
2018-09-04T15:08:27.661Z,12.00
2018-09-04T15:11:05.773Z,12.10
2018-09-04T15:13:39.097Z,12.20
2018-09-04T15:16:12.491Z,12.30
2018-09-04T15:18:46.434Z,12.40
2018-09-04T15:21:24.896Z,12.50
2018-09-04T15:23:58.736Z,12.60
2018-09-04T15:26:52.418Z,12.70
2018-09-04T15:29:27.285Z,12.90
2018-09-04T15:32:00.487Z,13.00
2018-09-04T15:34:36.408Z,13.00
2018-09-04T15:37:10.683Z,13.10
2018-09-04T15:39:44.797Z,13.20
2018-09-04T15:42:18.573Z,13.30
2018-09-04T15:44:57.166Z,13.30
2018-09-04T15:47:32.421Z,13.40
2018-09-04T15:50:07.711Z,13.50
2018-09-04T15:52:41.043Z,13.60
2018-09-04T15:55:14.403Z,13.70
2018-09-04T15:57:47.502Z,13.80
2018-09-04T16:00:21.880Z,13.90
2018-09-04T16:02:54.976Z,14.00
2018-09-04T16:05:29.943Z,14.70
2018-09-04T16:08:05.550Z,15.30
2018-09-04T16:10:41.266Z,15.70
2018-09-04T16:13:14.829Z,16.10
2018-09-04T16:15:50.267Z,16.70
2018-09-04T16:18:24.680Z,17.20
2018-09-04T16:20:59.248Z,17.60
2018-09-04T16:23:32.659Z,17.50
2018-09-04T16:26:09.373Z,17.10
2018-09-04T16:28:42.777Z,16.70
2018-09-04T16:31:16.368Z,16.50
2018-09-04T16:33:50.144Z,16.20
2018-09-04T16:36:28.144Z,16.00
2018-09-04T16:39:05.455Z,15.90
2018-09-04T16:41:39.277Z,15.80
2018-09-04T16:44:20.203Z,15.80
2018-09-04T16:46:58.575Z,15.90
2018-09-04T16:49:34.044Z,15.80
2018-09-04T16:52:13.135Z,15.80
2018-09-04T16:54:50.098Z,16.00
2018-09-04T16:57:24.763Z,16.00
2018-09-04T16:59:59.978Z,15.90
2018-09-04T17:02:38.020Z,16.00
2018-09-04T17:05:14.589Z,16.10
2018-09-04T17:07:48.243Z,16.20
2018-09-04T17:10:21.433Z,16.20
2018-09-04T17:12:56.465Z,16.10
2018-09-04T17:15:39.327Z,16.30
2018-09-04T17:18:18.214Z,16.40
2018-09-04T17:20:56.379Z,16.50
2018-09-04T17:23:31.188Z,16.50
2018-09-04T17:26:04.662Z,16.60
2018-09-04T17:31:23.386Z,16.70
2018-09-04T17:36:35.467Z,16.80
2018-09-04T17:42:30.371Z,17.00
2018-09-04T17:45:05.490Z,17.10
2018-09-04T17:47:39.180Z,17.10
2018-09-04T17:50:12.894Z,17.20
2018-09-04T17:52:46.559Z,17.20
2018-09-04T17:55:19.966Z,17.40
2018-09-04T17:57:54.125Z,17.50
2018-09-04T18:00:30.044Z,17.60
2018-09-04T18:03:03.551Z,17.70
2018-09-04T18:05:43.411Z,17.80
2018-09-04T18:08:17.771Z,18.00
2018-09-04T18:10:51.686Z,18.00
2018-09-04T18:13:29.196Z,18.00
2018-09-04T18:16:03.160Z,18.20
2018-09-04T18:18:38.001Z,18.20
2018-09-04T18:21:13.071Z,18.30
2018-09-04T18:24:07.616Z,18.40
2018-09-04T18:26:41.401Z,18.40
2018-09-04T18:29:14.839Z,18.60
2018-09-04T18:31:48.441Z,18.70
2018-09-04T18:34:22.278Z,18.90
2018-09-04T18:36:59.327Z,19.00
2018-09-04T18:39:32.982Z,19.10
2018-09-04T18:42:06.468Z,19.10
2018-09-04T18:44:41.578Z,19.10
2018-09-04T18:47:14.992Z,19.20
2018-09-04T18:49:49.136Z,19.20
2018-09-04T18:52:22.846Z,19.20
2018-09-04T18:55:00.998Z,19.30
2018-09-04T18:57:34.896Z,19.50
2018-09-04T19:00:10.453Z,19.50
2018-09-04T19:02:49.098Z,19.60
2018-09-04T19:05:23.570Z,19.50
2018-09-04T19:07:56.849Z,19.60
2018-09-04T19:10:30.172Z,19.70
2018-09-04T19:13:04.947Z,19.80
2018-09-04T19:15:40.832Z,19.80
2018-09-04T19:18:14.364Z,19.90
2018-09-04T19:20:48.624Z,20.10
2018-09-04T19:23:23.008Z,20.20
2018-09-04T19:25:56.209Z,20.30
2018-09-04T19:28:35.267Z,19.80
2018-09-04T19:31:10.444Z,19.80
2018-09-04T19:33:45.483Z,20.00
2018-09-04T19:36:21.893Z,19.90
2018-09-04T19:38:56.009Z,20.20
2018-09-04T19:41:31.226Z,20.30
2018-09-04T19:44:06.381Z,20.40
2018-09-04T19:46:39.905Z,20.50
2018-09-04T19:49:13.870Z,20.60
2018-09-04T19:51:47.969Z,20.70
2018-09-04T19:54:21.601Z,20.80
2018-09-04T19:56:56.397Z,20.90
2018-09-04T19:59:30.467Z,21.00
2018-09-04T20:02:04.252Z,21.10
2018-09-04T20:04:37.598Z,21.00
2018-09-04T20:07:10.937Z,21.00
2018-09-04T20:09:44.410Z,21.10
2018-09-04T20:12:18.267Z,21.10
2018-09-04T20:14:52.177Z,21.20
2018-09-04T20:17:27.655Z,21.20
2018-09-04T20:20:00.871Z,21.30
2018-09-04T20:22:35.305Z,21.50
2018-09-04T20:25:09.719Z,21.40
2018-09-04T20:27:46.710Z,21.20
2018-09-04T20:30:20.511Z,21.10
2018-09-04T20:32:54.161Z,21.40
2018-09-04T20:35:27.287Z,21.60
2018-09-04T20:38:01.233Z,21.80
2018-09-04T20:40:34.622Z,21.80
2018-09-04T20:43:08.889Z,22.00
2018-09-04T20:45:42.107Z,22.10
2018-09-04T20:48:15.245Z,22.30
2018-09-04T20:50:49.138Z,22.00
2018-09-04T20:53:22.287Z,21.90
2018-09-04T20:55:55.782Z,22.10
2018-09-04T20:58:41.195Z,22.40
2018-09-04T21:01:26.706Z,22.80
2018-09-04T21:04:10.334Z,23.00
2018-09-04T21:06:46.005Z,23.20
2018-09-04T21:09:59.678Z,23.20
2018-09-04T21:12:33.657Z,23.00
2018-09-04T21:15:08.103Z,23.20
2018-09-04T21:17:42.634Z,23.30
2018-09-04T21:20:16.170Z,23.40
2018-09-04T21:22:52.574Z,23.50
2018-09-04T21:25:29.044Z,23.70
2018-09-04T21:28:02.819Z,23.70
2018-09-04T21:30:37.378Z,23.90
2018-09-04T21:33:10.953Z,23.90
2018-09-04T21:35:44.408Z,23.80
2018-09-04T21:38:19.756Z,23.90
2018-09-04T21:40:53.659Z,24.00
2018-09-04T21:43:26.934Z,24.20
2018-09-04T21:46:01.098Z,24.30
2018-09-04T21:48:35.542Z,24.40
2018-09-04T21:51:09.604Z,24.20
2018-09-04T21:53:44.228Z,24.40
2018-09-04T21:56:23.197Z,24.70
2018-09-04T21:58:56.344Z,24.90
2018-09-04T22:01:29.417Z,24.90
2018-09-04T22:04:03.531Z,25.00
2018-09-04T22:06:37.377Z,25.00
2018-09-04T22:09:11.824Z,25.00
2018-09-04T22:11:46.738Z,25.20
2018-09-04T22:14:20.019Z,25.30
2018-09-04T22:16:53.952Z,25.40
2018-09-04T22:19:27.534Z,25.30
2018-09-04T22:22:01.016Z,25.30
2018-09-04T22:24:36.984Z,25.10
2018-09-04T22:27:14.887Z,25.50
2018-09-04T22:29:52.245Z,25.60
2018-09-04T22:32:26.653Z,25.60
2018-09-04T22:35:00.216Z,25.60
2018-09-04T22:37:33.623Z,25.90
2018-09-04T22:40:08.005Z,25.90
2018-09-04T22:42:44.063Z,25.90
2018-09-04T22:45:17.862Z,25.90
2018-09-04T22:47:51.892Z,25.80
2018-09-04T22:50:29.596Z,25.70
2018-09-04T22:53:07.634Z,26.00
2018-09-04T22:55:41.609Z,26.30
2018-09-04T22:58:15.170Z,26.50
2018-09-04T23:00:51.461Z,26.80
2018-09-04T23:03:24.755Z,26.80
2018-09-04T23:05:58.282Z,27.10
2018-09-04T23:08:31.920Z,26.90
2018-09-04T23:11:06.941Z,26.90
2018-09-04T23:13:40.060Z,27.20
2018-09-04T23:16:14.385Z,27.30
2018-09-04T23:18:48.121Z,27.20
2018-09-04T23:21:21.724Z,27.40
2018-09-04T23:23:55.309Z,26.90
2018-09-04T23:30:38.335Z,27.10
2018-09-04T23:33:11.848Z,26.90
2018-09-04T23:35:48.563Z,26.80
2018-09-04T23:38:25.084Z,27.10
2018-09-04T23:41:03.178Z,27.20
2018-09-04T23:43:36.659Z,27.10
2018-09-04T23:46:10.038Z,26.90
2018-09-04T23:48:45.416Z,26.90
2018-09-04T23:51:21.068Z,27.00
2018-09-04T23:53:55.102Z,27.00
2018-09-04T23:56:28.337Z,26.80
2018-09-04T23:59:01.748Z,26.60
